Terminal Aerodrome Forecast
Issued by NWS Atlanta, GA

Home | Current Version | Previous Version | Text Only | Print | Product List | Glossary On
Versions: 1 2 3 4 5 6 7 8 9 10 11 12 13 14 15 16 17 18 19 20 21 22 23 24 25 26 27 28 29 30 31 32 33 34 35 36 37 38 39 40 41 42 43
000
FTUS42 KFFC 290330 AAB
TAFATL
TAF AMD
KATL 290330Z 2904/3006 16003KT P6SM SKC
     FM291500 14007KT P6SM SCT200
     FM291900 19010KT P6SM BKN080
     FM292300 20009KT P6SM SCT025 BKN080
     FM300100 23006KT P6SM BKN025 OVC080
     FM300400 26006KT P6SM BKN012=

USA.gov is the U.S. government's official web portal to all federal, state and local government web resources and services.